sensor_id;sensor_type;location;lat;lon;timestamp;temperature;humidity
25554;DHT22;13446;50.926;5.332;2023-01-28T00:02:11;5.70;99.90
25554;DHT22;13446;50.926;5.332;2023-01-28T00:04:37;5.70;99.90
25554;DHT22;13446;50.926;5.332;2023-01-28T00:07:03;5.80;99.90
25554;DHT22;13446;50.926;5.332;2023-01-28T00:09:28;5.80;99.90
25554;DHT22;13446;50.926;5.332;2023-01-28T00:11:54;5.80;99.90
25554;DHT22;13446;50.926;5.332;2023-01-28T00:14:20;5.70;99.90
25554;DHT22;13446;50.926;5.332;2023-01-28T00:16:45;5.80;99.90
25554;DHT22;13446;50.926;5.332;2023-01-28T00:19:11;5.70;99.90
25554;DHT22;13446;50.926;5.332;2023-01-28T00:21:36;5.70;99.90
25554;DHT22;13446;50.926;5.332;2023-01-28T00:24:02;5.70;99.90
25554;DHT22;13446;50.926;5.332;2023-01-28T00:26:27;5.70;99.90
25554;DHT22;13446;50.926;5.332;2023-01-28T00:28:53;5.70;99.90
25554;DHT22;13446;50.926;5.332;2023-01-28T00:31:23;5.60;99.90
25554;DHT22;13446;50.926;5.332;2023-01-28T00:33:49;5.60;99.90
25554;DHT22;13446;50.926;5.332;2023-01-28T00:36:15;5.80;99.90
25554;DHT22;13446;50.926;5.332;2023-01-28T00:38:41;5.70;99.90
25554;DHT22;13446;50.926;5.332;2023-01-28T00:41:11;5.70;99.90
25554;DHT22;13446;50.926;5.332;2023-01-28T00:43:37;5.80;99.90
25554;DHT22;13446;50.926;5.332;2023-01-28T00:46:04;5.80;99.90
25554;DHT22;13446;50.926;5.332;2023-01-28T00:48:32;5.70;99.90
25554;DHT22;13446;50.926;5.332;2023-01-28T00:50:57;5.80;99.90
25554;DHT22;13446;50.926;5.332;2023-01-28T00:53:23;5.80;99.90
25554;DHT22;13446;50.926;5.332;2023-01-28T00:55:49;5.80;99.90
25554;DHT22;13446;50.926;5.332;2023-01-28T00:58:14;5.80;99.90
25554;DHT22;13446;50.926;5.332;2023-01-28T01:00:40;5.70;99.90
25554;DHT22;13446;50.926;5.332;2023-01-28T01:03:05;5.70;99.90
25554;DHT22;13446;50.926;5.332;2023-01-28T01:05:31;5.60;99.90
25554;DHT22;13446;50.926;5.332;2023-01-28T01:07:58;5.70;99.90
25554;DHT22;13446;50.926;5.332;2023-01-28T01:10:23;5.70;99.90
25554;DHT22;13446;50.926;5.332;2023-01-28T01:12:49;5.60;99.90
25554;DHT22;13446;50.926;5.332;2023-01-28T01:15:15;5.60;99.90
25554;DHT22;13446;50.926;5.332;2023-01-28T01:17:42;5.60;99.90
25554;DHT22;13446;50.926;5.332;2023-01-28T01:20:10;5.70;99.90
25554;DHT22;13446;50.926;5.332;2023-01-28T01:22:36;5.60;99.90
25554;DHT22;13446;50.926;5.332;2023-01-28T01:25:03;5.50;99.90
25554;DHT22;13446;50.926;5.332;2023-01-28T01:27:29;5.50;99.90
25554;DHT22;13446;50.926;5.332;2023-01-28T01:29:55;5.50;99.90
25554;DHT22;13446;50.926;5.332;2023-01-28T01:32:21;5.60;99.90
25554;DHT22;13446;50.926;5.332;2023-01-28T01:34:47;5.50;99.90
25554;DHT22;13446;50.926;5.332;2023-01-28T01:37:13;5.40;99.90
25554;DHT22;13446;50.926;5.332;2023-01-28T01:39:38;5.40;99.90
25554;DHT22;13446;50.926;5.332;2023-01-28T01:42:04;5.40;99.90
25554;DHT22;13446;50.926;5.332;2023-01-28T01:47:14;5.40;99.90
25554;DHT22;13446;50.926;5.332;2023-01-28T01:49:40;5.50;99.90
25554;DHT22;13446;50.926;5.332;2023-01-28T01:52:10;5.60;99.90
25554;DHT22;13446;50.926;5.332;2023-01-28T01:54:37;5.60;99.90
25554;DHT22;13446;50.926;5.332;2023-01-28T01:57:03;5.50;99.90
25554;DHT22;13446;50.926;5.332;2023-01-28T01:59:32;5.40;99.90
25554;DHT22;13446;50.926;5.332;2023-01-28T02:02:02;5.40;99.90
25554;DHT22;13446;50.926;5.332;2023-01-28T02:04:28;5.40;99.90
25554;DHT22;13446;50.926;5.332;2023-01-28T02:06:56;5.40;99.90
25554;DHT22;13446;50.926;5.332;2023-01-28T02:09:23;5.50;99.90
25554;DHT22;13446;50.926;5.332;2023-01-28T02:11:49;5.50;99.90
25554;DHT22;13446;50.926;5.332;2023-01-28T02:14:16;5.50;99.90
25554;DHT22;13446;50.926;5.332;2023-01-28T02:16:42;5.50;99.90
25554;DHT22;13446;50.926;5.332;2023-01-28T02:19:08;5.50;99.90
25554;DHT22;13446;50.926;5.332;2023-01-28T02:21:57;5.50;99.90
25554;DHT22;13446;50.926;5.332;2023-01-28T02:29:22;5.40;99.90
25554;DHT22;13446;50.926;5.332;2023-01-28T02:34:38;5.30;99.90
25554;DHT22;13446;50.926;5.332;2023-01-28T02:39:39;5.10;99.90
25554;DHT22;13446;50.926;5.332;2023-01-28T02:42:11;5.30;99.90
25554;DHT22;13446;50.926;5.332;2023-01-28T02:44:39;5.20;99.90
25554;DHT22;13446;50.926;5.332;2023-01-28T02:47:09;5.20;99.90
25554;DHT22;13446;50.926;5.332;2023-01-28T02:49:53;5.10;99.90
25554;DHT22;13446;50.926;5.332;2023-01-28T02:55:25;5.10;99.90
25554;DHT22;13446;50.926;5.332;2023-01-28T03:00:43;5.30;99.90
25554;DHT22;13446;50.926;5.332;2023-01-28T03:05:54;5.30;99.90
25554;DHT22;13446;50.926;5.332;2023-01-28T03:08:53;5.30;99.90
25554;DHT22;13446;50.926;5.332;2023-01-28T03:11:40;5.20;99.90
25554;DHT22;13446;50.926;5.332;2023-01-28T03:14:25;5.10;99.90
25554;DHT22;13446;50.926;5.332;2023-01-28T03:17:11;5.10;99.90
25554;DHT22;13446;50.926;5.332;2023-01-28T03:19:58;5.20;99.90
25554;DHT22;13446;50.926;5.332;2023-01-28T03:22:43;5.20;99.90
25554;DHT22;13446;50.926;5.332;2023-01-28T03:25:28;5.10;99.90
25554;DHT22;13446;50.926;5.332;2023-01-28T03:28:14;5.20;99.90
25554;DHT22;13446;50.926;5.332;2023-01-28T03:33:43;5.10;99.90
25554;DHT22;13446;50.926;5.332;2023-01-28T03:36:28;5.20;99.90
25554;DHT22;13446;50.926;5.332;2023-01-28T03:39:12;5.10;99.90
25554;DHT22;13446;50.926;5.332;2023-01-28T03:41:38;5.10;99.90
25554;DHT22;13446;50.926;5.332;2023-01-28T03:44:04;5.20;99.90
25554;DHT22;13446;50.926;5.332;2023-01-28T03:46:48;5.10;99.90
25554;DHT22;13446;50.926;5.332;2023-01-28T03:49:14;5.00;99.90
25554;DHT22;13446;50.926;5.332;2023-01-28T03:51:40;5.10;99.90
25554;DHT22;13446;50.926;5.332;2023-01-28T03:54:05;5.10;99.90
25554;DHT22;13446;50.926;5.332;2023-01-28T03:56:32;5.10;99.90
25554;DHT22;13446;50.926;5.332;2023-01-28T03:59:02;5.10;99.90
25554;DHT22;13446;50.926;5.332;2023-01-28T04:01:28;5.10;99.90
25554;DHT22;13446;50.926;5.332;2023-01-28T04:03:53;5.20;99.90
25554;DHT22;13446;50.926;5.332;2023-01-28T04:06:19;5.30;99.90
25554;DHT22;13446;50.926;5.332;2023-01-28T04:08:44;5.20;99.90
25554;DHT22;13446;50.926;5.332;2023-01-28T04:11:17;5.10;99.90
25554;DHT22;13446;50.926;5.332;2023-01-28T04:13:46;5.10;99.90
25554;DHT22;13446;50.926;5.332;2023-01-28T04:16:12;5.10;99.90
25554;DHT22;13446;50.926;5.332;2023-01-28T04:18:38;5.10;99.90
25554;DHT22;13446;50.926;5.332;2023-01-28T04:21:04;5.10;99.90
25554;DHT22;13446;50.926;5.332;2023-01-28T04:23:30;5.00;99.90
25554;DHT22;13446;50.926;5.332;2023-01-28T04:25:55;5.00;99.90
25554;DHT22;13446;50.926;5.332;2023-01-28T04:28:21;5.10;99.90
25554;DHT22;13446;50.926;5.332;2023-01-28T04:30:46;5.10;99.90
25554;DHT22;13446;50.926;5.332;2023-01-28T04:33:12;5.20;99.90
25554;DHT22;13446;50.926;5.332;2023-01-28T04:35:38;5.20;99.90
25554;DHT22;13446;50.926;5.332;2023-01-28T04:38:03;5.20;99.90
25554;DHT22;13446;50.926;5.332;2023-01-28T04:40:29;5.10;99.90
25554;DHT22;13446;50.926;5.332;2023-01-28T04:42:55;5.10;99.90
25554;DHT22;13446;50.926;5.332;2023-01-28T04:45:20;5.20;99.90
25554;DHT22;13446;50.926;5.332;2023-01-28T04:47:46;5.10;99.90
25554;DHT22;13446;50.926;5.332;2023-01-28T04:50:12;5.20;99.90
25554;DHT22;13446;50.926;5.332;2023-01-28T04:52:37;5.10;99.90
25554;DHT22;13446;50.926;5.332;2023-01-28T04:55:03;5.10;99.90
25554;DHT22;13446;50.926;5.332;2023-01-28T04:57:30;5.10;99.90
25554;DHT22;13446;50.926;5.332;2023-01-28T04:59:56;5.00;99.90
25554;DHT22;13446;50.926;5.332;2023-01-28T05:02:21;4.80;99.90
25554;DHT22;13446;50.926;5.332;2023-01-28T05:04:47;4.80;99.90
25554;DHT22;13446;50.926;5.332;2023-01-28T05:07:12;4.80;99.90
25554;DHT22;13446;50.926;5.332;2023-01-28T05:09:38;4.60;99.90
25554;DHT22;13446;50.926;5.332;2023-01-28T05:12:04;4.70;99.90
25554;DHT22;13446;50.926;5.332;2023-01-28T05:14:29;4.70;99.90
25554;DHT22;13446;50.926;5.332;2023-01-28T05:16:55;4.80;99.90
25554;DHT22;13446;50.926;5.332;2023-01-28T05:19:20;4.70;99.90
25554;DHT22;13446;50.926;5.332;2023-01-28T05:21:46;4.90;99.90
25554;DHT22;13446;50.926;5.332;2023-01-28T05:24:11;4.90;99.90
25554;DHT22;13446;50.926;5.332;2023-01-28T05:26:37;5.00;99.90
25554;DHT22;13446;50.926;5.332;2023-01-28T05:29:03;4.80;99.90
25554;DHT22;13446;50.926;5.332;2023-01-28T05:31:28;5.00;99.90
25554;DHT22;13446;50.926;5.332;2023-01-28T05:33:54;4.80;99.90
25554;DHT22;13446;50.926;5.332;2023-01-28T05:36:20;4.90;99.90
25554;DHT22;13446;50.926;5.332;2023-01-28T05:38:45;4.90;99.90
25554;DHT22;13446;50.926;5.332;2023-01-28T05:41:11;4.90;99.90
25554;DHT22;13446;50.926;5.332;2023-01-28T05:43:36;4.80;99.90
25554;DHT22;13446;50.926;5.332;2023-01-28T05:46:02;4.80;99.90
25554;DHT22;13446;50.926;5.332;2023-01-28T05:48:27;4.70;99.90
25554;DHT22;13446;50.926;5.332;2023-01-28T05:50:53;4.80;99.90
25554;DHT22;13446;50.926;5.332;2023-01-28T05:53:19;4.70;99.90
25554;DHT22;13446;50.926;5.332;2023-01-28T05:55:51;4.70;99.90
25554;DHT22;13446;50.926;5.332;2023-01-28T05:58:17;4.70;99.90
25554;DHT22;13446;50.926;5.332;2023-01-28T06:00:44;4.80;99.90
25554;DHT22;13446;50.926;5.332;2023-01-28T06:03:10;4.80;99.90
25554;DHT22;13446;50.926;5.332;2023-01-28T06:05:35;4.70;99.90
25554;DHT22;13446;50.926;5.332;2023-01-28T06:08:01;4.60;99.90
25554;DHT22;13446;50.926;5.332;2023-01-28T06:10:26;4.70;99.90
25554;DHT22;13446;50.926;5.332;2023-01-28T06:12:53;4.60;99.90
25554;DHT22;13446;50.926;5.332;2023-01-28T06:15:18;4.50;99.90
25554;DHT22;13446;50.926;5.332;2023-01-28T06:17:44;4.50;99.90
25554;DHT22;13446;50.926;5.332;2023-01-28T06:20:10;4.50;99.90
25554;DHT22;13446;50.926;5.332;2023-01-28T06:22:35;4.50;99.90
25554;DHT22;13446;50.926;5.332;2023-01-28T06:25:01;4.70;99.90
25554;DHT22;13446;50.926;5.332;2023-01-28T06:27:27;4.60;99.90
25554;DHT22;13446;50.926;5.332;2023-01-28T06:29:52;4.60;99.90
25554;DHT22;13446;50.926;5.332;2023-01-28T06:32:18;4.60;99.90
25554;DHT22;13446;50.926;5.332;2023-01-28T06:34:44;4.50;99.90
25554;DHT22;13446;50.926;5.332;2023-01-28T06:37:12;4.40;99.90
25554;DHT22;13446;50.926;5.332;2023-01-28T06:39:38;4.50;99.90
25554;DHT22;13446;50.926;5.332;2023-01-28T06:42:04;4.60;99.90
25554;DHT22;13446;50.926;5.332;2023-01-28T06:44:29;4.70;99.90
25554;DHT22;13446;50.926;5.332;2023-01-28T06:46:55;4.70;99.90
25554;DHT22;13446;50.926;5.332;2023-01-28T06:49:20;4.50;99.90
25554;DHT22;13446;50.926;5.332;2023-01-28T06:51:46;4.60;99.90
25554;DHT22;13446;50.926;5.332;2023-01-28T06:54:12;4.60;99.90
25554;DHT22;13446;50.926;5.332;2023-01-28T06:56:37;4.50;99.90
25554;DHT22;13446;50.926;5.332;2023-01-28T06:59:03;4.50;99.90
25554;DHT22;13446;50.926;5.332;2023-01-28T07:01:28;4.70;99.90
25554;DHT22;13446;50.926;5.332;2023-01-28T07:03:55;4.60;99.90
25554;DHT22;13446;50.926;5.332;2023-01-28T07:06:21;4.70;99.90
25554;DHT22;13446;50.926;5.332;2023-01-28T07:08:46;4.70;99.90
25554;DHT22;13446;50.926;5.332;2023-01-28T07:11:12;4.70;99.90
25554;DHT22;13446;50.926;5.332;2023-01-28T07:13:37;4.70;99.90
25554;DHT22;13446;50.926;5.332;2023-01-28T07:16:03;4.60;99.90
25554;DHT22;13446;50.926;5.332;2023-01-28T07:18:29;4.60;99.90
25554;DHT22;13446;50.926;5.332;2023-01-28T07:20:55;4.60;99.90
25554;DHT22;13446;50.926;5.332;2023-01-28T07:23:21;4.50;99.90
25554;DHT22;13446;50.926;5.332;2023-01-28T07:25:47;4.40;99.90
25554;DHT22;13446;50.926;5.332;2023-01-28T07:28:12;4.30;99.90
25554;DHT22;13446;50.926;5.332;2023-01-28T07:30:38;4.40;99.90
25554;DHT22;13446;50.926;5.332;2023-01-28T07:33:04;4.50;99.90
25554;DHT22;13446;50.926;5.332;2023-01-28T07:35:29;4.50;99.90
25554;DHT22;13446;50.926;5.332;2023-01-28T07:37:57;4.40;99.90
25554;DHT22;13446;50.926;5.332;2023-01-28T07:40:24;4.40;99.90
25554;DHT22;13446;50.926;5.332;2023-01-28T07:42:50;4.50;99.90
25554;DHT22;13446;50.926;5.332;2023-01-28T07:45:15;4.60;99.90
25554;DHT22;13446;50.926;5.332;2023-01-28T07:47:41;4.60;99.90
25554;DHT22;13446;50.926;5.332;2023-01-28T07:50:07;4.50;99.90
25554;DHT22;13446;50.926;5.332;2023-01-28T07:52:33;4.60;99.90
25554;DHT22;13446;50.926;5.332;2023-01-28T07:55:09;4.60;99.90
25554;DHT22;13446;50.926;5.332;2023-01-28T07:57:34;4.70;99.90
25554;DHT22;13446;50.926;5.332;2023-01-28T08:00:00;4.60;99.90
25554;DHT22;13446;50.926;5.332;2023-01-28T08:02:25;4.60;99.90
25554;DHT22;13446;50.926;5.332;2023-01-28T08:04:51;4.50;99.90
25554;DHT22;13446;50.926;5.332;2023-01-28T08:07:17;4.60;99.90
25554;DHT22;13446;50.926;5.332;2023-01-28T08:09:42;4.60;99.90
25554;DHT22;13446;50.926;5.332;2023-01-28T08:12:08;4.70;99.90
25554;DHT22;13446;50.926;5.332;2023-01-28T08:14:33;4.60;99.90
25554;DHT22;13446;50.926;5.332;2023-01-28T08:16:59;4.80;99.90
25554;DHT22;13446;50.926;5.332;2023-01-28T08:19:25;4.80;99.90
25554;DHT22;13446;50.926;5.332;2023-01-28T08:21:50;5.10;99.90
25554;DHT22;13446;50.926;5.332;2023-01-28T08:24:16;5.00;99.90
25554;DHT22;13446;50.926;5.332;2023-01-28T08:26:42;5.00;99.90
25554;DHT22;13446;50.926;5.332;2023-01-28T08:29:07;5.10;99.90
25554;DHT22;13446;50.926;5.332;2023-01-28T08:31:33;5.10;99.90
25554;DHT22;13446;50.926;5.332;2023-01-28T08:33:59;5.10;99.90
25554;DHT22;13446;50.926;5.332;2023-01-28T08:36:24;5.10;99.90
25554;DHT22;13446;50.926;5.332;2023-01-28T08:38:50;5.10;99.90
25554;DHT22;13446;50.926;5.332;2023-01-28T08:41:19;5.00;99.90
25554;DHT22;13446;50.926;5.332;2023-01-28T08:43:45;5.10;99.90
25554;DHT22;13446;50.926;5.332;2023-01-28T08:46:11;5.10;99.90
25554;DHT22;13446;50.926;5.332;2023-01-28T08:48:37;5.10;99.90
25554;DHT22;13446;50.926;5.332;2023-01-28T08:51:02;5.20;99.90
25554;DHT22;13446;50.926;5.332;2023-01-28T08:53:28;5.20;99.90
25554;DHT22;13446;50.926;5.332;2023-01-28T08:55:54;5.20;99.90
25554;DHT22;13446;50.926;5.332;2023-01-28T08:58:19;5.20;99.90
25554;DHT22;13446;50.926;5.332;2023-01-28T09:00:45;5.20;99.90
25554;DHT22;13446;50.926;5.332;2023-01-28T09:03:12;5.30;99.90
25554;DHT22;13446;50.926;5.332;2023-01-28T09:05:37;5.30;99.90
25554;DHT22;13446;50.926;5.332;2023-01-28T09:08:07;5.10;99.90
25554;DHT22;13446;50.926;5.332;2023-01-28T09:10:33;5.20;99.90
25554;DHT22;13446;50.926;5.332;2023-01-28T09:13:03;5.20;99.90
25554;DHT22;13446;50.926;5.332;2023-01-28T09:15:28;5.10;99.90
25554;DHT22;13446;50.926;5.332;2023-01-28T09:17:57;5.10;99.90
25554;DHT22;13446;50.926;5.332;2023-01-28T09:20:23;5.10;99.90
25554;DHT22;13446;50.926;5.332;2023-01-28T09:22:49;5.10;99.90
25554;DHT22;13446;50.926;5.332;2023-01-28T09:25:15;5.10;99.90
25554;DHT22;13446;50.926;5.332;2023-01-28T09:27:40;5.20;99.90
25554;DHT22;13446;50.926;5.332;2023-01-28T09:30:06;5.30;99.90
25554;DHT22;13446;50.926;5.332;2023-01-28T09:32:32;5.10;99.90
25554;DHT22;13446;50.926;5.332;2023-01-28T09:34:57;5.30;99.90
25554;DHT22;13446;50.926;5.332;2023-01-28T09:37:23;5.30;99.90
25554;DHT22;13446;50.926;5.332;2023-01-28T09:39:48;5.30;99.90
25554;DHT22;13446;50.926;5.332;2023-01-28T09:47:29;5.30;99.90
25554;DHT22;13446;50.926;5.332;2023-01-28T09:49:57;5.50;99.90
25554;DHT22;13446;50.926;5.332;2023-01-28T09:52:24;5.50;99.90
25554;DHT22;13446;50.926;5.332;2023-01-28T09:54:54;5.50;99.90
25554;DHT22;13446;50.926;5.332;2023-01-28T09:57:25;5.70;99.90
25554;DHT22;13446;50.926;5.332;2023-01-28T09:59:51;5.80;99.90
25554;DHT22;13446;50.926;5.332;2023-01-28T10:04:46;5.30;99.90
25554;DHT22;13446;50.926;5.332;2023-01-28T10:07:23;5.40;99.90
25554;DHT22;13446;50.926;5.332;2023-01-28T10:17:13;5.50;99.90
25554;DHT22;13446;50.926;5.332;2023-01-28T10:19:42;5.80;99.90
25554;DHT22;13446;50.926;5.332;2023-01-28T10:22:12;6.20;99.90
25554;DHT22;13446;50.926;5.332;2023-01-28T10:24:43;6.30;99.90
25554;DHT22;13446;50.926;5.332;2023-01-28T10:27:16;5.80;99.90
25554;DHT22;13446;50.926;5.332;2023-01-28T10:29:43;5.90;99.90
25554;DHT22;13446;50.926;5.332;2023-01-28T10:34:36;6.40;99.90
25554;DHT22;13446;50.926;5.332;2023-01-28T10:37:01;6.50;99.90
25554;DHT22;13446;50.926;5.332;2023-01-28T10:39:27;6.50;99.90
25554;DHT22;13446;50.926;5.332;2023-01-28T10:41:52;6.30;99.90
25554;DHT22;13446;50.926;5.332;2023-01-28T10:44:20;6.30;99.90
25554;DHT22;13446;50.926;5.332;2023-01-28T10:46:50;6.50;99.90
25554;DHT22;13446;50.926;5.332;2023-01-28T10:49:18;6.50;99.90
25554;DHT22;13446;50.926;5.332;2023-01-28T10:51:47;6.20;99.90
25554;DHT22;13446;50.926;5.332;2023-01-28T10:54:20;6.10;99.90
25554;DHT22;13446;50.926;5.332;2023-01-28T10:56:46;6.10;99.90
25554;DHT22;13446;50.926;5.332;2023-01-28T11:01:48;6.30;99.90
25554;DHT22;13446;50.926;5.332;2023-01-28T11:04:18;6.40;99.90
25554;DHT22;13446;50.926;5.332;2023-01-28T11:06:54;6.40;99.90
25554;DHT22;13446;50.926;5.332;2023-01-28T11:09:29;6.40;99.90
25554;DHT22;13446;50.926;5.332;2023-01-28T11:11:55;6.30;99.90
25554;DHT22;13446;50.926;5.332;2023-01-28T11:14:22;6.20;99.90
25554;DHT22;13446;50.926;5.332;2023-01-28T11:16:48;6.20;99.90
25554;DHT22;13446;50.926;5.332;2023-01-28T11:19:14;6.30;99.90
25554;DHT22;13446;50.926;5.332;2023-01-28T11:21:47;6.10;99.90
25554;DHT22;13446;50.926;5.332;2023-01-28T11:24:13;5.90;99.90
25554;DHT22;13446;50.926;5.332;2023-01-28T11:26:44;5.80;99.90
25554;DHT22;13446;50.926;5.332;2023-01-28T11:32:16;6.00;99.90
25554;DHT22;13446;50.926;5.332;2023-01-28T11:34:47;6.00;99.90
25554;DHT22;13446;50.926;5.332;2023-01-28T11:37:13;6.00;99.90
25554;DHT22;13446;50.926;5.332;2023-01-28T11:39:40;5.90;99.90
25554;DHT22;13446;50.926;5.332;2023-01-28T11:44:37;6.10;99.90
25554;DHT22;13446;50.926;5.332;2023-01-28T11:49:45;6.20;99.90
25554;DHT22;13446;50.926;5.332;2023-01-28T11:52:18;6.20;99.90
25554;DHT22;13446;50.926;5.332;2023-01-28T11:57:23;5.90;99.90
25554;DHT22;13446;50.926;5.332;2023-01-28T12:10:13;5.60;99.90
25554;DHT22;13446;50.926;5.332;2023-01-28T12:12:54;5.50;99.90
25554;DHT22;13446;50.926;5.332;2023-01-28T12:30:32;5.90;99.90
25554;DHT22;13446;50.926;5.332;2023-01-28T12:41:27;5.80;99.90
25554;DHT22;13446;50.926;5.332;2023-01-28T12:44:03;6.10;99.90
25554;DHT22;13446;50.926;5.332;2023-01-28T12:46:46;6.20;99.90
25554;DHT22;13446;50.926;5.332;2023-01-28T12:49:20;6.60;99.90
25554;DHT22;13446;50.926;5.332;2023-01-28T12:51:50;6.70;99.90
25554;DHT22;13446;50.926;5.332;2023-01-28T12:56:49;6.80;99.90
25554;DHT22;13446;50.926;5.332;2023-01-28T13:02:30;6.80;99.90
25554;DHT22;13446;50.926;5.332;2023-01-28T13:07:12;7.00;99.90
25554;DHT22;13446;50.926;5.332;2023-01-28T13:09:42;7.10;99.90
25554;DHT22;13446;50.926;5.332;2023-01-28T13:12:09;6.70;99.90
25554;DHT22;13446;50.926;5.332;2023-01-28T13:14:35;6.10;99.90
25554;DHT22;13446;50.926;5.332;2023-01-28T13:19:45;6.40;99.90
25554;DHT22;13446;50.926;5.332;2023-01-28T13:24:52;5.90;99.90
25554;DHT22;13446;50.926;5.332;2023-01-28T13:27:25;6.50;99.90
25554;DHT22;13446;50.926;5.332;2023-01-28T13:30:00;6.90;99.90
25554;DHT22;13446;50.926;5.332;2023-01-28T13:32:27;7.00;99.90
25554;DHT22;13446;50.926;5.332;2023-01-28T13:34:57;6.80;99.90
25554;DHT22;13446;50.926;5.332;2023-01-28T13:37:27;6.80;99.90
25554;DHT22;13446;50.926;5.332;2023-01-28T13:39:59;6.90;99.90
25554;DHT22;13446;50.926;5.332;2023-01-28T13:42:26;6.60;99.90
25554;DHT22;13446;50.926;5.332;2023-01-28T13:44:52;6.50;99.90
25554;DHT22;13446;50.926;5.332;2023-01-28T13:47:23;6.40;99.90
25554;DHT22;13446;50.926;5.332;2023-01-28T13:49:52;6.40;99.90
25554;DHT22;13446;50.926;5.332;2023-01-28T13:52:22;6.40;99.90
25554;DHT22;13446;50.926;5.332;2023-01-28T13:54:58;6.40;99.90
25554;DHT22;13446;50.926;5.332;2023-01-28T14:07:31;6.40;99.90
25554;DHT22;13446;50.926;5.332;2023-01-28T14:10:10;6.60;99.90
25554;DHT22;13446;50.926;5.332;2023-01-28T14:18:00;6.70;99.90
25554;DHT22;13446;50.926;5.332;2023-01-28T14:20:33;6.50;99.90
25554;DHT22;13446;50.926;5.332;2023-01-28T14:23:03;6.90;99.90
25554;DHT22;13446;50.926;5.332;2023-01-28T14:25:38;6.80;99.90
25554;DHT22;13446;50.926;5.332;2023-01-28T14:28:08;6.80;99.90
25554;DHT22;13446;50.926;5.332;2023-01-28T14:30:44;6.50;99.90
25554;DHT22;13446;50.926;5.332;2023-01-28T14:33:13;6.80;99.90
25554;DHT22;13446;50.926;5.332;2023-01-28T14:35:42;6.80;99.90
25554;DHT22;13446;50.926;5.332;2023-01-28T14:38:11;7.20;99.90
25554;DHT22;13446;50.926;5.332;2023-01-28T14:40:38;8.10;99.90
25554;DHT22;13446;50.926;5.332;2023-01-28T14:43:05;8.30;99.90
25554;DHT22;13446;50.926;5.332;2023-01-28T14:45:50;8.20;99.90
25554;DHT22;13446;50.926;5.332;2023-01-28T14:58:36;8.10;99.90
25554;DHT22;13446;50.926;5.332;2023-01-28T15:01:03;7.80;99.90
25554;DHT22;13446;50.926;5.332;2023-01-28T15:03:29;7.30;99.90
25554;DHT22;13446;50.926;5.332;2023-01-28T15:06:02;6.70;99.90
25554;DHT22;13446;50.926;5.332;2023-01-28T15:08:28;6.40;99.90
25554;DHT22;13446;50.926;5.332;2023-01-28T15:10:56;6.10;99.90
25554;DHT22;13446;50.926;5.332;2023-01-28T15:13:26;6.00;99.90
25554;DHT22;13446;50.926;5.332;2023-01-28T15:15:53;5.80;99.90
25554;DHT22;13446;50.926;5.332;2023-01-28T15:18:31;5.60;99.90
25554;DHT22;13446;50.926;5.332;2023-01-28T15:20:58;5.50;99.90
25554;DHT22;13446;50.926;5.332;2023-01-28T15:23:26;5.40;99.90
25554;DHT22;13446;50.926;5.332;2023-01-28T15:25:52;5.30;99.90
25554;DHT22;13446;50.926;5.332;2023-01-28T15:28:29;5.10;99.90
25554;DHT22;13446;50.926;5.332;2023-01-28T15:30:55;5.10;99.90
25554;DHT22;13446;50.926;5.332;2023-01-28T15:33:21;5.00;99.90
25554;DHT22;13446;50.926;5.332;2023-01-28T15:35:53;5.10;99.90
25554;DHT22;13446;50.926;5.332;2023-01-28T15:38:20;4.90;99.90
25554;DHT22;13446;50.926;5.332;2023-01-28T15:40:53;5.10;99.90
25554;DHT22;13446;50.926;5.332;2023-01-28T15:43:20;4.90;99.90
25554;DHT22;13446;50.926;5.332;2023-01-28T15:45:47;4.90;99.90
25554;DHT22;13446;50.926;5.332;2023-01-28T15:48:13;4.70;99.90
25554;DHT22;13446;50.926;5.332;2023-01-28T15:50:39;4.80;99.90
25554;DHT22;13446;50.926;5.332;2023-01-28T15:53:08;4.70;99.90
25554;DHT22;13446;50.926;5.332;2023-01-28T15:58:16;5.20;99.90
25554;DHT22;13446;50.926;5.332;2023-01-28T16:00:43;4.90;99.90
25554;DHT22;13446;50.926;5.332;2023-01-28T16:03:09;4.80;99.90
25554;DHT22;13446;50.926;5.332;2023-01-28T16:05:38;4.70;99.90
25554;DHT22;13446;50.926;5.332;2023-01-28T16:08:09;4.40;99.90
25554;DHT22;13446;50.926;5.332;2023-01-28T16:10:36;4.20;99.90
25554;DHT22;13446;50.926;5.332;2023-01-28T16:15:51;4.00;99.90
25554;DHT22;13446;50.926;5.332;2023-01-28T16:20:51;4.00;99.90
25554;DHT22;13446;50.926;5.332;2023-01-28T16:23:20;4.00;99.90
25554;DHT22;13446;50.926;5.332;2023-01-28T16:25:46;4.00;99.90
25554;DHT22;13446;50.926;5.332;2023-01-28T16:28:17;4.00;99.90
25554;DHT22;13446;50.926;5.332;2023-01-28T16:30:43;4.10;99.90
25554;DHT22;13446;50.926;5.332;2023-01-28T16:33:18;4.20;99.90
25554;DHT22;13446;50.926;5.332;2023-01-28T16:35:44;4.00;99.90
25554;DHT22;13446;50.926;5.332;2023-01-28T16:38:10;3.90;99.90
25554;DHT22;13446;50.926;5.332;2023-01-28T16:40:41;3.80;99.90
25554;DHT22;13446;50.926;5.332;2023-01-28T16:43:08;3.70;99.90
25554;DHT22;13446;50.926;5.332;2023-01-28T16:45:35;3.60;99.90
25554;DHT22;13446;50.926;5.332;2023-01-28T16:48:01;3.70;99.90
25554;DHT22;13446;50.926;5.332;2023-01-28T16:50:26;3.70;99.90
25554;DHT22;13446;50.926;5.332;2023-01-28T16:52:52;3.70;99.90
25554;DHT22;13446;50.926;5.332;2023-01-28T16:55:19;3.90;99.90
25554;DHT22;13446;50.926;5.332;2023-01-28T16:57:45;4.10;99.90
25554;DHT22;13446;50.926;5.332;2023-01-28T17:00:16;4.10;99.90
25554;DHT22;13446;50.926;5.332;2023-01-28T17:02:43;3.90;99.90
25554;DHT22;13446;50.926;5.332;2023-01-28T17:05:09;3.80;99.90
25554;DHT22;13446;50.926;5.332;2023-01-28T17:07:36;3.70;99.90
25554;DHT22;13446;50.926;5.332;2023-01-28T17:10:01;3.70;99.90
25554;DHT22;13446;50.926;5.332;2023-01-28T17:12:27;3.70;99.90
25554;DHT22;13446;50.926;5.332;2023-01-28T17:14:53;3.70;99.90
25554;DHT22;13446;50.926;5.332;2023-01-28T17:17:18;3.70;99.90
25554;DHT22;13446;50.926;5.332;2023-01-28T17:19:44;3.70;99.90
25554;DHT22;13446;50.926;5.332;2023-01-28T17:22:10;3.60;99.90
25554;DHT22;13446;50.926;5.332;2023-01-28T17:24:36;3.60;99.90
25554;DHT22;13446;50.926;5.332;2023-01-28T17:27:01;3.60;99.90
25554;DHT22;13446;50.926;5.332;2023-01-28T17:29:27;3.50;99.90
25554;DHT22;13446;50.926;5.332;2023-01-28T17:31:52;3.60;99.90
25554;DHT22;13446;50.926;5.332;2023-01-28T17:34:18;3.50;99.90
25554;DHT22;13446;50.926;5.332;2023-01-28T17:36:43;3.30;99.90
25554;DHT22;13446;50.926;5.332;2023-01-28T17:39:09;3.30;99.90
25554;DHT22;13446;50.926;5.332;2023-01-28T17:41:35;3.30;99.90
25554;DHT22;13446;50.926;5.332;2023-01-28T17:44:00;3.40;99.90
25554;DHT22;13446;50.926;5.332;2023-01-28T17:46:28;3.40;99.90
25554;DHT22;13446;50.926;5.332;2023-01-28T17:48:54;3.10;99.90
25554;DHT22;13446;50.926;5.332;2023-01-28T17:51:19;3.10;99.90
25554;DHT22;13446;50.926;5.332;2023-01-28T17:53:49;3.00;99.90
25554;DHT22;13446;50.926;5.332;2023-01-28T17:56:19;3.10;99.90
25554;DHT22;13446;50.926;5.332;2023-01-28T17:58:52;3.20;99.90
25554;DHT22;13446;50.926;5.332;2023-01-28T18:01:18;3.10;99.90
25554;DHT22;13446;50.926;5.332;2023-01-28T18:03:44;2.90;99.90
25554;DHT22;13446;50.926;5.332;2023-01-28T18:06:09;2.90;99.90